createdAt,value
2019-03-21T00:01:43.531Z,2.43
2019-03-21T00:04:14.713Z,4.57
2019-03-21T00:06:44.424Z,4.17
2019-03-21T00:09:16.146Z,3.33
2019-03-21T00:12:06.149Z,5.27
2019-03-21T00:14:54.195Z,3.60
2019-03-21T00:17:26.899Z,4.80
2019-03-21T00:19:56.713Z,5.70
2019-03-21T00:22:26.428Z,4.90
2019-03-21T00:24:56.243Z,3.83
2019-03-21T00:27:26.047Z,7.07
2019-03-21T00:29:55.917Z,4.73
2019-03-21T00:32:25.709Z,6.93
2019-03-21T00:34:55.489Z,4.07
2019-03-21T00:37:25.892Z,5.73
2019-03-21T00:39:55.701Z,7.40
2019-03-21T00:42:25.439Z,5.30
2019-03-21T00:44:55.257Z,4.20
2019-03-21T00:47:25.186Z,6.13
2019-03-21T00:49:54.908Z,6.37
2019-03-21T00:52:24.717Z,4.57
2019-03-21T00:54:54.481Z,2.17
2019-03-21T00:57:24.242Z,5.30
2019-03-21T00:59:54.029Z,4.27
2019-03-21T01:02:23.813Z,7.30
2019-03-21T01:04:53.610Z,4.23
2019-03-21T01:07:23.480Z,3.30
2019-03-21T01:09:53.355Z,2.10
2019-03-21T01:12:23.095Z,4.53
2019-03-21T01:14:52.825Z,5.73
2019-03-21T01:17:22.568Z,5.23
2019-03-21T01:19:52.383Z,6.57
2019-03-21T01:22:22.107Z,11.27
2019-03-21T01:24:51.870Z,1.77
2019-03-21T01:27:21.593Z,6.43
2019-03-21T01:29:51.519Z,4.03
2019-03-21T01:32:21.287Z,6.13
2019-03-21T01:34:51.071Z,4.00
2019-03-21T01:37:20.885Z,7.03
2019-03-21T01:39:50.666Z,4.17
2019-03-21T01:42:20.386Z,7.50
2019-03-21T01:44:50.170Z,6.63
2019-03-21T01:47:19.975Z,7.20
2019-03-21T01:49:49.691Z,3.00
2019-03-21T01:52:19.425Z,5.87
2019-03-21T01:54:49.220Z,5.43
2019-03-21T01:57:19.129Z,4.47
2019-03-21T01:59:48.847Z,6.33
2019-03-21T02:02:18.636Z,3.50
2019-03-21T02:04:48.371Z,6.83
2019-03-21T02:07:18.089Z,5.90
2019-03-21T02:09:48.100Z,9.87
2019-03-21T02:12:17.885Z,7.73
2019-03-21T02:14:52.119Z,8.00
2019-03-21T02:17:19.084Z,5.70
2019-03-21T02:19:48.815Z,7.37
2019-03-21T02:22:18.565Z,8.30
2019-03-21T02:24:48.339Z,4.60
2019-03-21T02:27:18.081Z,8.03
2019-03-21T02:29:47.806Z,7.20
2019-03-21T02:32:17.743Z,6.77
2019-03-21T02:34:47.460Z,7.10
2019-03-21T02:37:17.184Z,6.63
2019-03-21T02:39:58.809Z,6.60
2019-03-21T02:42:18.509Z,7.30
2019-03-21T02:44:48.331Z,8.30
2019-03-21T02:47:18.197Z,6.10
2019-03-21T02:49:48.059Z,7.40
2019-03-21T02:52:17.783Z,9.80
2019-03-21T02:54:47.819Z,9.77
2019-03-21T02:57:17.547Z,5.83
2019-03-21T02:59:47.327Z,7.73
2019-03-21T03:02:17.039Z,9.27
2019-03-21T03:04:46.820Z,6.17
2019-03-21T03:07:16.540Z,10.20
2019-03-21T03:09:46.643Z,7.80
2019-03-21T03:12:16.578Z,7.80
2019-03-21T03:14:46.286Z,6.93
2019-03-21T03:17:16.252Z,12.67
2019-03-21T03:19:46.018Z,5.53
2019-03-21T03:22:15.769Z,7.07
2019-03-21T03:24:45.663Z,7.17
2019-03-21T03:27:15.376Z,11.40
2019-03-21T03:29:45.144Z,7.53
2019-03-21T03:32:14.932Z,10.63
2019-03-21T03:34:44.757Z,11.20
2019-03-21T03:37:14.472Z,12.57
2019-03-21T03:39:44.238Z,11.13
2019-03-21T03:42:13.966Z,9.53
2019-03-21T03:44:43.723Z,11.57
2019-03-21T03:47:13.641Z,12.13
2019-03-21T03:49:43.371Z,8.73
2019-03-21T03:52:13.102Z,15.17
2019-03-21T03:54:42.978Z,15.60
2019-03-21T03:57:13.237Z,13.50
2019-03-21T03:59:42.947Z,7.57
2019-03-21T04:02:12.729Z,13.30
2019-03-21T04:04:42.565Z,14.20
2019-03-21T04:07:12.294Z,11.43
2019-03-21T04:09:42.078Z,10.80
2019-03-21T04:12:12.590Z,10.77
2019-03-21T04:14:42.485Z,8.83
2019-03-21T04:17:12.329Z,13.07
2019-03-21T04:19:42.082Z,10.10
2019-03-21T04:22:11.863Z,8.43
2019-03-21T04:24:41.649Z,7.63
2019-03-21T04:27:11.518Z,15.47
2019-03-21T04:29:41.251Z,14.80
2019-03-21T04:32:11.012Z,11.23
2019-03-21T04:34:40.746Z,11.33
2019-03-21T04:37:10.587Z,12.67
2019-03-21T04:39:40.393Z,13.97
2019-03-21T04:42:10.146Z,14.17
2019-03-21T04:44:39.901Z,16.47
2019-03-21T04:47:09.687Z,9.80
2019-03-21T04:49:39.395Z,16.63
2019-03-21T04:52:09.130Z,13.43
2019-03-21T04:54:38.941Z,15.20
2019-03-21T04:57:08.674Z,14.70
2019-03-21T04:59:38.653Z,14.43
2019-03-21T05:02:08.403Z,13.10
2019-03-21T05:04:38.207Z,15.43
2019-03-21T05:07:07.935Z,11.77
2019-03-21T05:09:37.714Z,9.93
2019-03-21T05:12:07.460Z,16.97
2019-03-21T05:14:37.351Z,14.33
2019-03-21T05:17:07.121Z,14.13
2019-03-21T05:19:36.834Z,20.30
2019-03-21T05:22:06.542Z,17.93
2019-03-21T05:24:36.319Z,13.83
2019-03-21T05:27:06.065Z,13.13
2019-03-21T05:29:36.044Z,18.07
2019-03-21T05:32:05.803Z,19.60
2019-03-21T05:34:35.535Z,10.73
2019-03-21T05:37:05.283Z,19.10
2019-03-21T05:39:35.194Z,9.87
2019-03-21T05:42:08.623Z,14.50
2019-03-21T05:44:41.697Z,10.30
2019-03-21T05:47:11.453Z,16.37
2019-03-21T05:49:41.179Z,16.53
2019-03-21T05:52:11.999Z,17.53
2019-03-21T05:54:41.871Z,19.53
2019-03-21T05:57:11.607Z,13.33
2019-03-21T05:59:41.422Z,9.77
2019-03-21T06:02:11.279Z,13.83
2019-03-21T06:04:41.972Z,12.20
2019-03-21T06:07:16.310Z,19.97
2019-03-21T06:09:46.042Z,12.00
2019-03-21T06:12:15.784Z,14.97
2019-03-21T06:14:49.953Z,13.33
2019-03-21T06:17:19.682Z,21.70
2019-03-21T06:20:11.426Z,8.63
2019-03-21T06:23:15.914Z,13.03
2019-03-21T06:26:07.657Z,20.53
2019-03-21T06:28:37.409Z,17.43
2019-03-21T06:31:07.202Z,16.03
2019-03-21T06:33:36.987Z,16.03
2019-03-21T06:36:06.715Z,23.23
2019-03-21T06:38:36.444Z,17.43
2019-03-21T06:41:06.294Z,17.40
2019-03-21T06:43:36.013Z,14.77
2019-03-21T06:46:05.846Z,18.43
2019-03-21T06:48:35.607Z,18.63
2019-03-21T06:51:05.382Z,25.63
2019-03-21T06:53:35.115Z,14.83
2019-03-21T06:56:04.875Z,11.70
2019-03-21T06:58:34.600Z,17.43
2019-03-21T07:01:04.365Z,17.93
2019-03-21T07:03:34.215Z,16.10
2019-03-21T07:06:03.991Z,14.83
2019-03-21T07:08:33.731Z,20.50
2019-03-21T07:11:03.492Z,16.97
2019-03-21T07:13:33.207Z,18.80
2019-03-21T07:16:02.936Z,12.17
2019-03-21T07:18:32.681Z,15.07
2019-03-21T07:21:02.446Z,21.73
2019-03-21T07:23:32.272Z,15.90
2019-03-21T07:26:02.054Z,19.40
2019-03-21T07:28:31.795Z,16.17
2019-03-21T07:31:01.841Z,16.63
2019-03-21T07:33:31.823Z,17.97
2019-03-21T07:36:01.556Z,17.60
2019-03-21T07:38:31.292Z,20.23
2019-03-21T07:41:01.077Z,16.03
2019-03-21T07:43:30.855Z,15.43
2019-03-21T07:46:01.190Z,16.27
2019-03-21T07:48:31.057Z,19.47
2019-03-21T07:51:00.906Z,18.30
2019-03-21T07:53:30.698Z,25.83
2019-03-21T07:56:00.528Z,14.83
2019-03-21T07:58:30.339Z,16.57
2019-03-21T08:01:00.315Z,14.37
2019-03-21T08:03:30.167Z,17.73
2019-03-21T08:05:59.980Z,21.40
2019-03-21T08:08:29.836Z,18.23
2019-03-21T08:10:59.668Z,13.83
2019-03-21T08:13:29.480Z,16.50
2019-03-21T08:15:59.372Z,15.17
2019-03-21T08:18:29.151Z,15.93
2019-03-21T08:21:00.126Z,15.13
2019-03-21T08:23:30.051Z,17.40
2019-03-21T08:26:00.080Z,11.20
2019-03-21T08:28:29.886Z,17.50
2019-03-21T08:31:19.220Z,12.00
2019-03-21T08:33:49.147Z,13.00
2019-03-21T08:36:18.985Z,12.87
2019-03-21T08:38:48.906Z,9.27
2019-03-21T08:41:18.773Z,8.17
2019-03-21T08:43:48.500Z,9.67
2019-03-21T08:46:18.849Z,8.93
2019-03-21T08:48:48.600Z,11.30
2019-03-21T08:51:18.332Z,13.23
2019-03-21T08:53:48.234Z,8.63
2019-03-21T08:56:17.955Z,6.27
2019-03-21T08:58:47.748Z,4.27
2019-03-21T09:01:17.717Z,13.87
2019-03-21T09:03:47.450Z,7.17
2019-03-21T09:06:17.173Z,8.10
2019-03-21T09:08:46.993Z,10.10
2019-03-21T09:11:16.769Z,9.27
2019-03-21T09:13:46.503Z,8.27
2019-03-21T09:16:16.421Z,7.73
2019-03-21T09:18:46.287Z,5.60
2019-03-21T09:21:19.881Z,9.43
2019-03-21T09:23:47.701Z,5.50
2019-03-21T09:26:17.461Z,7.57
2019-03-21T09:28:47.219Z,9.07
2019-03-21T09:31:17.111Z,5.60
2019-03-21T09:33:46.891Z,9.67
2019-03-21T09:36:16.785Z,8.50
2019-03-21T09:38:46.543Z,8.60
2019-03-21T09:41:16.262Z,6.07
2019-03-21T09:43:45.986Z,8.03
2019-03-21T09:46:15.770Z,3.40
2019-03-21T09:48:45.598Z,4.27
2019-03-21T09:51:15.332Z,5.40
2019-03-21T09:53:45.117Z,6.33
2019-03-21T09:56:14.859Z,5.23
2019-03-21T09:58:44.594Z,5.63
2019-03-21T10:01:14.437Z,6.13
2019-03-21T10:03:44.293Z,4.77
2019-03-21T10:06:14.032Z,2.87
2019-03-21T10:08:43.797Z,6.10
2019-03-21T10:11:13.592Z,5.73
2019-03-21T10:13:43.332Z,3.53
2019-03-21T10:16:13.187Z,4.10
2019-03-21T10:18:42.912Z,6.73
2019-03-21T10:21:12.646Z,2.93
2019-03-21T10:23:42.483Z,2.40
2019-03-21T10:26:12.286Z,4.37
2019-03-21T10:28:41.954Z,7.67
2019-03-21T10:31:11.741Z,5.87
2019-03-21T10:33:41.464Z,4.53
2019-03-21T10:36:11.206Z,4.47
2019-03-21T10:38:41.040Z,2.83
2019-03-21T10:41:10.755Z,3.13
2019-03-21T10:43:40.473Z,4.00
2019-03-21T10:46:10.249Z,5.33
2019-03-21T10:48:40.194Z,3.97
2019-03-21T10:51:10.055Z,4.80
2019-03-21T10:53:39.821Z,5.43
2019-03-21T10:56:09.541Z,3.53
2019-03-21T10:58:39.347Z,3.80
2019-03-21T11:01:09.120Z,3.80
2019-03-21T11:03:38.997Z,2.33
2019-03-21T11:06:08.922Z,4.33
2019-03-21T11:08:38.781Z,3.27
2019-03-21T11:11:08.516Z,4.73
2019-03-21T11:13:38.285Z,4.33
2019-03-21T11:16:08.152Z,2.60
2019-03-21T11:18:37.882Z,4.30
2019-03-21T11:21:07.620Z,3.30
2019-03-21T11:23:37.394Z,3.23
2019-03-21T11:26:07.118Z,3.53
2019-03-21T11:28:36.871Z,3.60
2019-03-21T11:31:06.715Z,2.20
2019-03-21T11:33:36.451Z,4.10
2019-03-21T11:36:06.277Z,2.10
2019-03-21T11:38:36.042Z,2.60
2019-03-21T11:41:05.896Z,3.83
2019-03-21T11:43:35.640Z,4.33
2019-03-21T11:46:05.439Z,3.37
2019-03-21T11:48:35.178Z,2.77
2019-03-21T11:51:04.943Z,3.73
2019-03-21T11:53:34.846Z,3.47
2019-03-21T11:56:04.708Z,3.53
2019-03-21T11:58:34.436Z,5.97
2019-03-21T12:01:04.265Z,5.97
2019-03-21T12:03:34.024Z,4.73
2019-03-21T12:06:03.764Z,4.00
2019-03-21T12:08:33.728Z,3.70
2019-03-21T12:11:03.524Z,2.23
2019-03-21T12:13:33.199Z,2.50
2019-03-21T12:16:02.953Z,3.87
2019-03-21T12:18:32.713Z,5.20
2019-03-21T12:21:02.828Z,4.80
2019-03-21T12:23:32.566Z,3.73
2019-03-21T12:26:02.351Z,4.70
2019-03-21T12:28:32.088Z,2.40
2019-03-21T12:31:01.883Z,4.50
2019-03-21T12:33:31.604Z,3.37
2019-03-21T12:36:01.547Z,6.80
2019-03-21T12:38:31.396Z,4.13
2019-03-21T12:41:01.121Z,5.63
2019-03-21T12:43:31.232Z,3.97
2019-03-21T12:46:04.942Z,3.93
2019-03-21T12:48:34.775Z,3.50
2019-03-21T12:51:04.810Z,3.20
2019-03-21T12:53:34.597Z,4.77
2019-03-21T12:56:04.420Z,5.37
2019-03-21T12:58:34.344Z,3.23
2019-03-21T13:01:04.381Z,4.57
2019-03-21T13:03:34.097Z,4.47
2019-03-21T13:06:04.292Z,5.63
2019-03-21T13:08:34.289Z,4.60
2019-03-21T13:11:03.993Z,5.03
2019-03-21T13:13:33.773Z,5.97
2019-03-21T13:16:03.494Z,4.97
2019-03-21T13:18:33.278Z,3.57
2019-03-21T13:21:03.104Z,4.47
2019-03-21T13:23:33.035Z,3.83
2019-03-21T13:26:03.871Z,3.47
2019-03-21T13:28:33.659Z,4.40
2019-03-21T13:31:03.399Z,3.83
2019-03-21T13:33:33.232Z,4.70
2019-03-21T13:36:03.013Z,5.57
2019-03-21T13:38:32.944Z,4.10
2019-03-21T13:41:02.676Z,4.33
2019-03-21T13:43:32.639Z,4.27
2019-03-21T13:46:02.378Z,4.07
2019-03-21T13:48:32.113Z,2.70
2019-03-21T13:51:01.887Z,3.47
2019-03-21T13:53:31.905Z,4.43
2019-03-21T13:56:01.642Z,4.03
2019-03-21T13:58:31.509Z,4.27
2019-03-21T14:01:01.229Z,3.00
2019-03-21T14:03:31.046Z,2.80
2019-03-21T14:06:00.857Z,3.23
2019-03-21T14:08:31.028Z,4.83
2019-03-21T14:11:00.877Z,3.67
2019-03-21T14:13:30.678Z,5.50
2019-03-21T14:16:00.457Z,3.07
2019-03-21T14:18:30.181Z,3.87
2019-03-21T14:21:00.127Z,5.70
2019-03-21T14:23:29.870Z,5.27
2019-03-21T14:25:59.628Z,5.47
2019-03-21T14:28:29.393Z,3.60
2019-03-21T14:30:59.626Z,5.00
2019-03-21T14:33:29.378Z,5.30
2019-03-21T14:35:59.114Z,5.13
2019-03-21T14:38:28.835Z,3.93
2019-03-21T14:40:58.609Z,5.20
2019-03-21T14:43:28.379Z,5.57
2019-03-21T14:45:58.109Z,2.70
2019-03-21T14:48:27.827Z,4.47
2019-03-21T14:50:57.636Z,5.67
2019-03-21T14:53:29.092Z,3.13
2019-03-21T14:55:59.002Z,4.60
2019-03-21T14:58:28.856Z,5.97
2019-03-21T15:00:58.703Z,3.30
2019-03-21T15:03:28.447Z,5.53
2019-03-21T15:05:58.240Z,4.10
2019-03-21T15:08:27.970Z,6.57
2019-03-21T15:10:57.963Z,6.50
2019-03-21T15:13:27.807Z,3.70
2019-03-21T15:15:57.595Z,4.90
2019-03-21T15:18:27.409Z,4.03
2019-03-21T15:20:57.184Z,3.57
2019-03-21T15:23:26.942Z,6.80
2019-03-21T15:25:56.784Z,3.77
2019-03-21T15:28:26.884Z,6.27
2019-03-21T15:30:56.630Z,4.37
2019-03-21T15:33:26.410Z,3.80
2019-03-21T15:35:56.299Z,6.30
2019-03-21T15:38:27.731Z,5.70
2019-03-21T15:40:57.705Z,4.20
2019-03-21T15:43:27.539Z,4.50
2019-03-21T15:45:57.576Z,4.03
2019-03-21T15:48:27.316Z,5.37
2019-03-21T15:51:04.341Z,5.93
2019-03-21T15:53:28.681Z,5.30
2019-03-21T15:55:58.403Z,6.33
2019-03-21T15:58:28.538Z,3.97
2019-03-21T16:00:58.379Z,4.13
2019-03-21T16:03:28.147Z,6.80
2019-03-21T16:05:58.643Z,5.03
2019-03-21T16:08:28.532Z,4.73
2019-03-21T16:10:58.585Z,4.50
2019-03-21T16:13:28.315Z,6.23
2019-03-21T16:15:58.171Z,7.23
2019-03-21T16:18:27.943Z,4.57
2019-03-21T16:20:58.276Z,6.30
2019-03-21T16:23:28.076Z,4.77
2019-03-21T16:25:57.825Z,5.10
2019-03-21T16:28:27.636Z,5.47
2019-03-21T16:30:57.418Z,6.30
2019-03-21T16:33:27.231Z,5.23
2019-03-21T16:35:56.994Z,7.47
2019-03-21T16:38:26.718Z,7.03
2019-03-21T16:40:56.458Z,5.47
2019-03-21T16:43:26.318Z,5.47
2019-03-21T16:45:56.040Z,7.70
2019-03-21T16:48:25.841Z,4.97
2019-03-21T16:50:55.612Z,4.27
2019-03-21T16:53:25.349Z,5.77
2019-03-21T16:55:55.109Z,7.47
2019-03-21T16:58:24.869Z,7.13
2019-03-21T17:00:54.680Z,5.53
2019-03-21T17:03:24.611Z,5.80
2019-03-21T17:05:54.404Z,4.40
2019-03-21T17:08:24.207Z,7.37
2019-03-21T17:10:53.986Z,5.80
2019-03-21T17:13:23.908Z,6.03
2019-03-21T17:15:53.683Z,7.97
2019-03-21T17:18:23.451Z,7.60
2019-03-21T17:20:53.286Z,7.37
2019-03-21T17:23:23.029Z,4.33
2019-03-21T17:25:52.786Z,6.00
2019-03-21T17:28:22.665Z,8.33
2019-03-21T17:30:52.482Z,4.53
2019-03-21T17:33:23.204Z,7.03
2019-03-21T17:35:52.944Z,6.17
2019-03-21T17:38:22.672Z,6.60
2019-03-21T17:40:52.465Z,7.27
2019-03-21T17:43:22.203Z,6.37
2019-03-21T17:45:52.042Z,8.50
2019-03-21T17:48:21.831Z,6.83
2019-03-21T17:50:51.920Z,8.23
2019-03-21T17:53:21.663Z,6.70
2019-03-21T17:55:51.499Z,7.17
2019-03-21T17:58:21.230Z,6.67
2019-03-21T18:00:51.019Z,6.00
2019-03-21T18:03:21.189Z,7.47
2019-03-21T18:05:51.076Z,10.97
2019-03-21T18:08:20.971Z,7.97
2019-03-21T18:10:50.754Z,9.70
2019-03-21T18:13:20.613Z,6.73
2019-03-21T18:15:50.489Z,8.70
2019-03-21T18:18:20.369Z,7.87
2019-03-21T18:20:50.127Z,8.50
2019-03-21T18:23:19.925Z,6.93
2019-03-21T18:25:49.880Z,10.57
2019-03-21T18:28:19.755Z,9.20
2019-03-21T18:30:49.552Z,8.47
2019-03-21T18:33:19.543Z,9.73
2019-03-21T18:35:49.228Z,6.30
2019-03-21T18:38:19.013Z,8.20
2019-03-21T18:40:48.778Z,10.63
2019-03-21T18:43:18.593Z,12.87
2019-03-21T18:45:48.406Z,9.30
2019-03-21T18:48:18.498Z,12.97
2019-03-21T18:50:48.373Z,7.53
2019-03-21T18:53:18.218Z,13.03
2019-03-21T18:55:48.198Z,8.53
2019-03-21T18:58:18.019Z,8.43
2019-03-21T19:00:47.754Z,6.27
2019-03-21T19:03:17.576Z,9.87
2019-03-21T19:05:47.599Z,9.30
2019-03-21T19:08:17.478Z,7.43
2019-03-21T19:10:47.403Z,10.03
2019-03-21T19:13:17.200Z,10.57
2019-03-21T19:15:46.939Z,8.33
2019-03-21T19:18:16.783Z,9.37
2019-03-21T19:20:46.558Z,4.20
2019-03-21T19:23:16.290Z,3.17
2019-03-21T19:25:46.136Z,1.10
2019-03-21T19:28:15.864Z,2.97
2019-03-21T19:30:45.621Z,2.60
2019-03-21T19:33:15.453Z,3.47
2019-03-21T19:35:46.908Z,1.27
2019-03-21T19:38:16.734Z,2.57
2019-03-21T19:40:46.530Z,1.53
2019-03-21T19:43:16.240Z,1.73
2019-03-21T19:45:45.973Z,2.20
2019-03-21T19:48:16.093Z,2.10
2019-03-21T19:50:45.809Z,1.17
2019-03-21T19:53:15.550Z,1.20
2019-03-21T19:55:45.316Z,3.70
2019-03-21T19:58:15.423Z,2.70
2019-03-21T20:00:45.330Z,3.10
2019-03-21T20:03:15.175Z,2.30
2019-03-21T20:05:44.922Z,2.87
2019-03-21T20:08:14.941Z,1.40
2019-03-21T20:10:44.967Z,2.67
2019-03-21T20:13:14.909Z,3.27
2019-03-21T20:15:44.754Z,3.00
2019-03-21T20:18:14.834Z,3.67
2019-03-21T20:20:44.648Z,4.03
2019-03-21T20:23:14.552Z,3.23
2019-03-21T20:25:44.382Z,1.90
2019-03-21T20:28:14.253Z,1.27
2019-03-21T20:30:44.019Z,2.63
2019-03-21T20:33:13.916Z,2.87
2019-03-21T20:35:43.849Z,3.77
2019-03-21T20:38:13.678Z,4.17
2019-03-21T20:40:43.594Z,4.03
2019-03-21T20:43:13.375Z,8.67
2019-03-21T20:45:43.196Z,7.07
2019-03-21T20:48:13.472Z,8.20
2019-03-21T20:50:43.207Z,6.00
2019-03-21T20:53:13.129Z,7.83
2019-03-21T20:55:53.421Z,7.90
2019-03-21T20:58:14.444Z,5.87
2019-03-21T21:00:44.151Z,4.83
2019-03-21T21:03:14.114Z,2.43
2019-03-21T21:05:43.847Z,1.23
2019-03-21T21:08:13.591Z,4.40
2019-03-21T21:10:43.539Z,1.27
2019-03-21T21:13:13.328Z,3.07
2019-03-21T21:15:43.053Z,1.30
2019-03-21T21:18:12.976Z,1.87
2019-03-21T21:20:42.766Z,1.57
2019-03-21T21:23:12.564Z,2.80
2019-03-21T21:25:42.410Z,2.57
2019-03-21T21:28:12.320Z,2.67
2019-03-21T21:30:42.055Z,2.00
2019-03-21T21:33:11.896Z,2.20
2019-03-21T21:35:41.608Z,4.67
2019-03-21T21:38:11.394Z,2.60
2019-03-21T21:40:41.311Z,2.13
2019-03-21T21:43:11.164Z,3.27
2019-03-21T21:45:40.921Z,2.03
2019-03-21T21:48:10.809Z,1.57
2019-03-21T21:50:40.526Z,1.37
2019-03-21T21:53:10.265Z,3.13
2019-03-21T21:55:40.085Z,2.40
2019-03-21T21:58:09.842Z,3.30
2019-03-21T22:00:39.570Z,2.03
2019-03-21T22:03:09.324Z,2.27
2019-03-21T22:05:39.211Z,3.37
2019-03-21T22:08:08.957Z,3.20
2019-03-21T22:10:39.114Z,3.27
2019-03-21T22:13:09.269Z,2.17
2019-03-21T22:15:39.175Z,3.37
2019-03-21T22:18:08.957Z,1.47
2019-03-21T22:20:38.671Z,4.03
2019-03-21T22:23:08.459Z,2.30
2019-03-21T22:25:38.245Z,2.90
2019-03-21T22:28:10.112Z,2.30
2019-03-21T22:30:39.519Z,3.40
2019-03-21T22:33:09.426Z,1.83
2019-03-21T22:35:39.254Z,3.47
2019-03-21T22:38:08.981Z,2.70
2019-03-21T22:40:38.933Z,2.30
2019-03-21T22:43:08.696Z,3.30
2019-03-21T22:45:38.421Z,3.17
2019-03-21T22:48:08.263Z,3.13
2019-03-21T22:50:37.981Z,2.13
2019-03-21T22:53:07.773Z,2.47
2019-03-21T22:55:37.577Z,2.07
2019-03-21T22:58:07.365Z,2.33
2019-03-21T23:00:44.336Z,6.43
2019-03-21T23:03:14.052Z,2.67
2019-03-21T23:05:43.811Z,4.07
2019-03-21T23:08:13.634Z,1.80
2019-03-21T23:10:45.150Z,1.17
2019-03-21T23:13:15.134Z,2.40
2019-03-21T23:15:45.074Z,0.80
2019-03-21T23:18:14.863Z,2.77
2019-03-21T23:20:44.577Z,1.43
2019-03-21T23:23:14.363Z,2.07
2019-03-21T23:25:44.100Z,1.83
2019-03-21T23:28:13.899Z,4.27
2019-03-21T23:30:43.641Z,2.60
2019-03-21T23:33:13.452Z,2.00
2019-03-21T23:35:43.200Z,2.07
2019-03-21T23:38:12.975Z,2.50
2019-03-21T23:40:42.720Z,2.33
2019-03-21T23:43:12.450Z,2.37
2019-03-21T23:45:42.895Z,2.03
2019-03-21T23:48:12.764Z,5.60
2019-03-21T23:50:42.476Z,1.63
2019-03-21T23:53:12.244Z,2.50
2019-03-21T23:55:42.059Z,3.37
2019-03-21T23:58:11.813Z,3.50
